Time;durP1;ratioP1;P1;durP2;ratioP2;P2;SDS_P1;SDS_P2;PMS_P1;PMS_P2;Temp;Humidity;BMP_temperature;BMP_pressure;BME280_temperature;BME280_humidity;BME280_pressure;Samples;Min_cycle;Max_cycle;Signal;HPM_P1;HPM_P2
2022/03/07 00:00:09;;;;;;;11.83;6.63;;;;;-0.70;102110.00;;;;4905899;29;20253;-68
2022/03/07 00:02:56;;;;;;;8.97;5.87;;;;;-0.70;102105.00;;;;4901021;29;20293;-68
2022/03/07 00:05:42;;;;;;;11.93;6.43;;;;;-0.60;102117.00;;;;4902460;29;20244;-68
2022/03/07 00:08:29;;;;;;;12.53;6.33;;;;;-0.70;102112.00;;;;4899032;29;20233;-68
2022/03/07 00:11:22;;;;;;;11.57;6.43;;;;;-0.70;102116.00;;;;4911263;29;20237;-68
2022/03/07 00:14:10;;;;;;;8.43;5.50;;;;;-0.80;102115.00;;;;4911749;29;20989;-70
2022/03/07 00:16:56;;;;;;;10.60;5.80;;;;;-0.70;102107.00;;;;4911904;29;20289;-66
2022/03/07 00:19:42;;;;;;;11.80;6.60;;;;;-0.70;102121.00;;;;4906126;29;20240;-69
2022/03/07 00:22:29;;;;;;;9.50;6.27;;;;;-0.80;102119.00;;;;4906211;29;20411;-71
2022/03/07 00:25:17;;;;;;;12.30;6.50;;;;;-0.80;102133.00;;;;4913861;29;20244;-69
2022/03/07 00:28:03;;;;;;;9.20;6.13;;;;;-0.80;102129.00;;;;4911023;29;20233;-68
2022/03/07 00:30:51;;;;;;;12.23;7.43;;;;;-0.80;102129.00;;;;4913220;29;20344;-69
2022/03/07 00:33:37;;;;;;;12.27;7.13;;;;;-0.80;102129.00;;;;4904760;29;20280;-70
2022/03/07 00:36:25;;;;;;;13.10;7.07;;;;;-0.90;102118.00;;;;4910967;29;20228;-68
2022/03/07 00:39:12;;;;;;;11.63;6.50;;;;;-1.00;102113.00;;;;4909205;29;20236;-70
2022/03/07 00:41:58;;;;;;;12.07;6.27;;;;;-0.90;102101.00;;;;4913746;29;20237;-67
2022/03/07 00:44:44;;;;;;;9.97;6.00;;;;;-0.80;102129.00;;;;4920189;29;20316;-68
2022/03/07 00:47:32;;;;;;;10.80;6.27;;;;;-1.00;102121.00;;;;4903738;29;20333;-70
2022/03/07 00:50:18;;;;;;;12.17;6.77;;;;;-1.00;102122.00;;;;4913054;29;20607;-69
2022/03/07 00:53:05;;;;;;;11.20;6.63;;;;;-1.00;102125.00;;;;4908029;29;20252;-68
2022/03/07 00:55:52;;;;;;;14.53;6.93;;;;;-1.10;102121.00;;;;4906238;29;20320;-69
2022/03/07 00:58:38;;;;;;;10.27;6.30;;;;;-1.20;102128.00;;;;4904277;29;20720;-68
2022/03/07 01:01:24;;;;;;;11.73;6.37;;;;;-1.00;102126.00;;;;4910185;29;20607;-68
2022/03/07 01:04:12;;;;;;;10.40;6.20;;;;;-1.20;102125.00;;;;4903372;29;20238;-68
2022/03/07 01:06:58;;;;;;;9.10;6.43;;;;;-1.20;102106.00;;;;4917676;29;20618;-67
2022/03/07 01:09:45;;;;;;;10.37;6.03;;;;;-1.20;102118.00;;;;4911577;29;20265;-67
2022/03/07 01:12:31;;;;;;;11.07;6.00;;;;;-1.50;102129.00;;;;4907565;29;20797;-70
2022/03/07 01:15:17;;;;;;;11.07;6.70;;;;;-1.20;102115.00;;;;4912553;29;20237;-69
2022/03/07 01:18:04;;;;;;;10.83;6.43;;;;;-1.40;102120.00;;;;4910357;29;20331;-70
2022/03/07 01:20:52;;;;;;;11.90;6.67;;;;;-1.30;102127.00;;;;4909119;29;20811;-69
2022/03/07 01:23:39;;;;;;;14.00;6.83;;;;;-1.20;102120.00;;;;4911601;29;20248;-68
2022/03/07 01:26:25;;;;;;;12.27;6.57;;;;;-1.30;102117.00;;;;4908610;29;20317;-70
2022/03/07 01:29:11;;;;;;;12.20;7.13;;;;;-1.30;102115.00;;;;4910705;29;20365;-71
2022/03/07 01:31:57;;;;;;;13.27;6.50;;;;;-1.50;102108.00;;;;4909663;29;20641;-71
2022/03/07 01:34:44;;;;;;;9.97;6.03;;;;;-1.40;102106.00;;;;4903499;29;20228;-70
2022/03/07 01:37:31;;;;;;;10.47;6.53;;;;;-1.30;102101.00;;;;4901294;29;20229;-68
2022/03/07 01:40:18;;;;;;;12.63;6.50;;;;;-1.30;102104.00;;;;4909517;29;20820;-70
2022/03/07 01:43:06;;;;;;;11.60;5.97;;;;;-1.20;102109.00;;;;4910082;29;20229;-70
2022/03/07 01:45:52;;;;;;;12.53;6.43;;;;;-1.20;102106.00;;;;4903244;29;20291;-70
2022/03/07 01:48:39;;;;;;;10.83;6.47;;;;;-1.40;102095.00;;;;4905355;29;20257;-70
2022/03/07 01:51:26;;;;;;;10.70;5.87;;;;;-1.40;102102.00;;;;4909451;29;20300;-71
2022/03/07 01:54:15;;;;;;;13.70;7.10;;;;;-1.40;102103.00;;;;4909758;29;20241;-70
2022/03/07 01:57:01;;;;;;;16.17;6.73;;;;;-1.60;102103.00;;;;4912307;29;20868;-69
2022/03/07 01:59:48;;;;;;;10.83;5.63;;;;;-1.60;102114.00;;;;4904177;29;20237;-68
2022/03/07 02:02:34;;;;;;;9.17;5.63;;;;;-1.50;102102.00;;;;4902677;29;20233;-69
2022/03/07 02:05:21;;;;;;;10.67;6.47;;;;;-1.40;102106.00;;;;4909091;29;20225;-70
2022/03/07 02:08:08;;;;;;;10.90;6.17;;;;;-1.40;102103.00;;;;4909581;29;20229;-68
2022/03/07 02:10:56;;;;;;;10.57;6.23;;;;;-1.30;102107.00;;;;4909818;29;20877;-68
2022/03/07 02:13:42;;;;;;;10.20;6.00;;;;;-1.40;102098.00;;;;4903283;29;20232;-71
2022/03/07 02:16:28;;;;;;;11.93;6.53;;;;;-1.40;102104.00;;;;4909215;29;20241;-68
2022/03/07 02:19:15;;;;;;;12.60;7.20;;;;;-1.20;102099.00;;;;4909484;29;20362;-69
2022/03/07 02:22:04;;;;;;;13.13;6.43;;;;;-1.00;102085.00;;;;4911893;29;20644;-69
2022/03/07 02:24:51;;;;;;;12.07;6.07;;;;;-1.20;102104.00;;;;4911795;29;20229;-68
2022/03/07 02:27:37;;;;;;;12.03;6.00;;;;;-1.30;102106.00;;;;4906957;29;20237;-67
2022/03/07 02:30:23;;;;;;;10.83;7.13;;;;;-1.30;102087.00;;;;4901645;29;20257;-68
2022/03/07 02:33:12;;;;;;;9.37;5.93;;;;;-1.20;102099.00;;;;4906089;29;20225;-67
2022/03/07 02:35:58;;;;;;;9.37;6.60;;;;;-1.10;102097.00;;;;4902412;29;20249;-70
2022/03/07 02:38:46;;;;;;;12.77;6.70;;;;;-1.10;102104.00;;;;4895849;29;20234;-68
2022/03/07 02:41:32;;;;;;;9.77;5.73;;;;;-1.10;102100.00;;;;4894058;29;20230;-68
2022/03/07 02:44:18;;;;;;;9.30;6.17;;;;;-1.00;102105.00;;;;4898932;29;20233;-70
2022/03/07 02:47:05;;;;;;;9.37;6.50;;;;;-0.90;102105.00;;;;4896936;29;20383;-69
2022/03/07 02:49:51;;;;;;;11.00;6.17;;;;;-0.80;102112.00;;;;4897354;29;20727;-68
2022/03/07 02:52:37;;;;;;;13.93;7.40;;;;;-0.80;102101.00;;;;4894381;29;20234;-71
2022/03/07 02:55:25;;;;;;;11.70;7.00;;;;;-0.80;102079.00;;;;4895131;29;20306;-68
2022/03/07 02:58:12;;;;;;;11.80;6.80;;;;;-0.70;102097.00;;;;4898744;29;20343;-68
2022/03/07 03:00:58;;;;;;;11.83;6.50;;;;;-0.60;102098.00;;;;4892598;29;20729;-69
2022/03/07 03:03:45;;;;;;;12.20;6.47;;;;;-0.50;102044.00;;;;4894853;29;20846;-69
2022/03/07 03:06:31;;;;;;;14.03;6.20;;;;;-0.60;102095.00;;;;4895508;29;20374;-67
2022/03/07 03:09:17;;;;;;;11.13;6.23;;;;;-0.50;102100.00;;;;4893461;29;20244;-71
2022/03/07 03:12:10;;;;;;;14.27;8.07;;;;;-0.30;102103.00;;;;4892631;29;20234;-68
2022/03/07 03:14:57;;;;;;;15.80;7.73;;;;;-0.40;102098.00;;;;4895302;29;20401;-70
2022/03/07 03:17:44;;;;;;;17.20;8.27;;;;;-0.30;102110.00;;;;4907445;29;20229;-68
2022/03/07 03:20:30;;;;;;;14.30;8.23;;;;;-0.30;102116.00;;;;4909678;29;20717;-69
2022/03/07 03:23:17;;;;;;;14.40;8.30;;;;;-0.30;102122.00;;;;4907001;29;20370;-68
2022/03/07 03:26:04;;;;;;;14.43;7.50;;;;;-0.30;102120.00;;;;4910912;29;20241;-67
2022/03/07 03:28:51;;;;;;;14.67;8.17;;;;;-0.30;102122.00;;;;4907696;29;20240;-71
2022/03/07 03:31:38;;;;;;;13.47;7.83;;;;;-0.30;102122.00;;;;4926788;29;20237;-71
2022/03/07 03:34:25;;;;;;;13.53;8.53;;;;;-0.30;102113.00;;;;4930216;28;20867;-71
2022/03/07 03:37:11;;;;;;;17.37;8.47;;;;;-0.30;102117.00;;;;4934802;29;20216;-71
2022/03/07 03:39:58;;;;;;;12.70;7.53;;;;;-0.20;102065.00;;;;4934978;29;20258;-71
2022/03/07 03:42:44;;;;;;;13.27;7.90;;;;;-0.20;102125.00;;;;4930605;29;20242;-69
2022/03/07 03:45:32;;;;;;;12.53;7.83;;;;;-0.30;102125.00;;;;4927956;29;20236;-72
2022/03/07 03:48:19;;;;;;;16.50;8.30;;;;;-0.30;102121.00;;;;4936159;29;20232;-74
2022/03/07 03:51:06;;;;;;;15.47;8.30;;;;;-0.30;102117.00;;;;4936910;29;20221;-70
2022/03/07 03:53:52;;;;;;;17.70;8.53;;;;;-0.20;102119.00;;;;4937765;29;20246;-71
2022/03/07 03:56:40;;;;;;;16.97;8.40;;;;;-0.20;102116.00;;;;4920557;29;20256;-70
2022/03/07 03:59:26;;;;;;;16.10;8.03;;;;;-0.20;102127.00;;;;4923337;29;20241;-68
2022/03/07 04:02:14;;;;;;;14.03;7.90;;;;;-0.20;102126.00;;;;4909495;29;20596;-70
2022/03/07 04:05:01;;;;;;;15.67;8.27;;;;;-0.20;102118.00;;;;4908755;29;20248;-69
2022/03/07 04:07:48;;;;;;;14.30;8.40;;;;;-0.20;102116.00;;;;4905797;29;20240;-69
2022/03/07 04:10:34;;;;;;;12.97;6.90;;;;;-0.10;102125.00;;;;4907320;29;20374;-68
2022/03/07 04:13:20;;;;;;;13.67;7.30;;;;;-0.10;102126.00;;;;4907187;29;20240;-68
2022/03/07 04:16:06;;;;;;;16.00;8.10;;;;;-0.10;102114.00;;;;4908104;29;20308;-69
2022/03/07 04:18:54;;;;;;;14.33;8.33;;;;;0.00;102127.00;;;;4899006;29;20260;-67
2022/03/07 04:21:40;;;;;;;15.03;7.07;;;;;0.10;102115.00;;;;4900586;29;20233;-68
2022/03/07 04:24:30;;;;;;;14.43;7.93;;;;;0.00;102113.00;;;;4907821;29;20292;-69
2022/03/07 04:27:16;;;;;;;12.43;6.97;;;;;0.00;102107.00;;;;4904406;29;20317;-68
2022/03/07 04:30:04;;;;;;;14.97;9.03;;;;;0.00;102101.00;;;;4909862;29;20816;-67
2022/03/07 04:32:50;;;;;;;17.23;7.80;;;;;0.10;102101.00;;;;4901548;29;20637;-68
2022/03/07 04:35:38;;;;;;;14.37;7.83;;;;;0.10;102101.00;;;;4907090;29;21095;-68
2022/03/07 04:38:26;;;;;;;14.90;7.37;;;;;0.00;102110.00;;;;4907217;29;20236;-68
2022/03/07 04:41:13;;;;;;;15.67;7.90;;;;;0.20;102103.00;;;;4908655;29;20236;-69
2022/03/07 04:43:59;;;;;;;16.77;8.17;;;;;-0.10;102114.00;;;;4907555;29;20305;-69
2022/03/07 04:46:46;;;;;;;11.87;6.93;;;;;-0.10;102097.00;;;;4901096;29;20261;-69
2022/03/07 04:49:32;;;;;;;13.73;7.63;;;;;0.00;102105.00;;;;4906003;29;20285;-68
2022/03/07 04:52:20;;;;;;;14.07;7.63;;;;;-0.10;102107.00;;;;4909253;29;20332;-70
2022/03/07 04:55:08;;;;;;;13.87;7.93;;;;;-0.10;102110.00;;;;4909049;29;20327;-70
2022/03/07 04:57:54;;;;;;;14.77;7.20;;;;;-0.10;102113.00;;;;4904566;29;20301;-71
2022/03/07 05:00:41;;;;;;;18.73;7.53;;;;;0.00;102105.00;;;;4907945;29;20245;-66
2022/03/07 05:03:27;;;;;;;12.90;7.70;;;;;-0.10;102093.00;;;;4912758;29;20241;-68
2022/03/07 05:06:14;;;;;;;12.50;6.67;;;;;-0.10;102099.00;;;;4911073;29;20938;-72
2022/03/07 05:09:02;;;;;;;12.20;7.70;;;;;0.00;102100.00;;;;4909627;29;20241;-69
2022/03/07 05:11:48;;;;;;;12.73;8.47;;;;;-0.20;102107.00;;;;4903932;29;20277;-71
2022/03/07 05:14:34;;;;;;;16.43;7.60;;;;;-0.20;102104.00;;;;4910400;29;20782;-69
2022/03/07 05:17:20;;;;;;;15.90;8.30;;;;;-0.10;102109.00;;;;4910417;29;20229;-69
2022/03/07 05:20:08;;;;;;;12.83;6.87;;;;;-0.20;102120.00;;;;4912869;29;20240;-68
2022/03/07 05:22:55;;;;;;;12.50;6.97;;;;;-0.30;102114.00;;;;4904695;29;20233;-70
2022/03/07 05:25:42;;;;;;;13.33;7.43;;;;;-0.30;102108.00;;;;4907885;29;20232;-69
2022/03/07 05:28:28;;;;;;;12.73;7.37;;;;;-0.30;102117.00;;;;4906817;29;20339;-68
2022/03/07 05:31:15;;;;;;;17.07;7.70;;;;;-0.30;102108.00;;;;4910774;29;20233;-68
2022/03/07 05:34:01;;;;;;;12.53;7.37;;;;;-0.30;102131.00;;;;4909632;29;20235;-68
2022/03/07 05:36:47;;;;;;;14.47;7.17;;;;;-0.30;102115.00;;;;4904603;29;20256;-69
2022/03/07 05:39:33;;;;;;;15.67;7.30;;;;;-0.40;102116.00;;;;4909347;29;20269;-69
2022/03/07 05:42:21;;;;;;;14.17;7.63;;;;;-0.40;102110.00;;;;4911729;29;20229;-70
2022/03/07 05:45:10;;;;;;;11.93;6.50;;;;;-0.50;102114.00;;;;4910267;29;20237;-67
2022/03/07 05:47:56;;;;;;;20.73;8.97;;;;;-0.60;102111.00;;;;4908380;29;21101;-69
2022/03/07 05:50:42;;;;;;;12.80;7.40;;;;;-0.50;102114.00;;;;4902559;29;20236;-68
2022/03/07 05:53:29;;;;;;;16.03;7.73;;;;;-0.60;102122.00;;;;4905754;29;20239;-67
2022/03/07 05:56:15;;;;;;;12.87;7.50;;;;;-0.60;102127.00;;;;4901521;29;20233;-68
2022/03/07 05:59:03;;;;;;;12.10;7.07;;;;;-0.80;102131.00;;;;4911699;29;20381;-68
2022/03/07 06:01:49;;;;;;;14.57;6.63;;;;;-0.80;102121.00;;;;4907388;29;20218;-69
2022/03/07 06:04:35;;;;;;;12.07;7.23;;;;;-0.80;102130.00;;;;4911705;29;20244;-69
2022/03/07 06:07:21;;;;;;;14.93;7.60;;;;;-0.70;102141.00;;;;4910618;29;20269;-69
2022/03/07 06:10:08;;;;;;;24.93;7.20;;;;;-0.80;102142.00;;;;4909730;29;20245;-68
2022/03/07 06:12:54;;;;;;;11.27;6.47;;;;;-1.00;102143.00;;;;4903274;29;20237;-71
2022/03/07 06:15:43;;;;;;;10.03;6.97;;;;;-0.90;102137.00;;;;4909513;29;20297;-67
2022/03/07 06:18:31;;;;;;;16.40;8.23;;;;;-0.90;102143.00;;;;4906925;29;20241;-68
2022/03/07 06:21:17;;;;;;;13.13;7.13;;;;;-0.90;102139.00;;;;4911151;29;20236;-69
2022/03/07 06:24:04;;;;;;;15.37;7.63;;;;;-0.90;102143.00;;;;4904128;29;20237;-69
2022/03/07 06:26:50;;;;;;;13.77;7.40;;;;;-1.00;102143.00;;;;4902425;29;20233;-65
2022/03/07 06:29:41;;;;;;;16.07;8.07;;;;;-1.10;102135.00;;;;4908232;29;20237;-69
2022/03/07 06:32:28;;;;;;;13.83;6.63;;;;;-1.10;102135.00;;;;4908761;29;20704;-68
2022/03/07 06:35:14;;;;;;;11.50;6.53;;;;;-1.00;102131.00;;;;4907035;29;20229;-69
2022/03/07 06:38:01;;;;;;;11.90;7.10;;;;;-1.00;102139.00;;;;4904886;29;20321;-68
2022/03/07 06:40:47;;;;;;;14.83;8.23;;;;;-1.00;102136.00;;;;4902063;29;20241;-68
2022/03/07 06:43:33;;;;;;;13.20;7.83;;;;;-0.90;102132.00;;;;4909111;29;20242;-68
2022/03/07 06:46:20;;;;;;;13.80;8.07;;;;;-0.80;102147.00;;;;4911080;29;20315;-70
2022/03/07 06:49:08;;;;;;;12.27;7.17;;;;;-0.80;102137.00;;;;4901695;29;20753;-68
2022/03/07 06:51:54;;;;;;;14.77;7.90;;;;;-0.90;102140.00;;;;4902165;29;20331;-70
2022/03/07 06:54:40;;;;;;;14.53;7.57;;;;;-0.90;102138.00;;;;4911224;29;20237;-68
2022/03/07 06:57:27;;;;;;;12.37;6.87;;;;;-1.00;102142.00;;;;4896860;29;20326;-67
2022/03/07 07:00:16;;;;;;;12.87;7.20;;;;;-1.00;102118.00;;;;4900822;29;20236;-68
2022/03/07 07:03:03;;;;;;;14.33;7.33;;;;;-0.90;102145.00;;;;4908575;29;20246;-69
2022/03/07 07:05:51;;;;;;;17.47;7.53;;;;;-0.90;102152.00;;;;4901243;29;20257;-69
2022/03/07 07:08:37;;;;;;;14.23;7.17;;;;;-0.90;102158.00;;;;4909864;29;20277;-66
2022/03/07 07:11:23;;;;;;;13.00;7.37;;;;;-1.00;102140.00;;;;4902420;29;20228;-69
2022/03/07 07:14:09;;;;;;;13.23;7.43;;;;;-0.90;102149.00;;;;4904756;29;20236;-67
2022/03/07 07:16:56;;;;;;;16.90;7.27;;;;;-0.80;102160.00;;;;4903628;29;20225;-68
2022/03/07 07:19:42;;;;;;;14.13;7.20;;;;;-0.80;102154.00;;;;4907126;29;20325;-66
2022/03/07 07:22:30;;;;;;;11.03;6.53;;;;;-0.50;102164.00;;;;4910565;29;20241;-65
2022/03/07 07:25:18;;;;;;;13.93;7.30;;;;;-0.50;102153.00;;;;4910138;29;20241;-67
2022/03/07 07:28:04;;;;;;;13.63;7.90;;;;;-0.60;102161.00;;;;4903095;29;20240;-68
2022/03/07 07:30:51;;;;;;;13.63;8.33;;;;;-0.50;102154.00;;;;4902846;29;20776;-66
2022/03/07 07:33:37;;;;;;;13.37;8.23;;;;;-0.30;102148.00;;;;4906927;29;20240;-67
2022/03/07 07:36:23;;;;;;;13.77;7.37;;;;;-0.20;102159.00;;;;4907702;29;20228;-67
2022/03/07 07:39:10;;;;;;;14.30;7.60;;;;;-0.10;102154.00;;;;4902062;29;20233;-66
2022/03/07 07:41:56;;;;;;;13.50;7.77;;;;;0.00;102154.00;;;;4901927;29;20233;-67
2022/03/07 07:44:43;;;;;;;12.83;6.77;;;;;-0.10;102155.00;;;;4905554;29;20810;-68
2022/03/07 07:47:29;;;;;;;12.83;8.60;;;;;0.00;102152.00;;;;4891600;29;20241;-67
2022/03/07 07:50:15;;;;;;;20.47;9.23;;;;;0.10;102148.00;;;;4898598;29;20725;-68
2022/03/07 07:53:02;;;;;;;19.17;9.37;;;;;0.20;102176.00;;;;4890471;29;20335;-68
2022/03/07 07:55:49;;;;;;;17.10;9.37;;;;;0.30;102165.00;;;;4904351;29;20313;-67
2022/03/07 07:58:36;;;;;;;18.60;10.43;;;;;0.50;102156.00;;;;4907662;29;20258;-67
2022/03/07 08:01:23;;;;;;;17.57;8.70;;;;;0.60;102166.00;;;;4910221;29;20374;-68
2022/03/07 08:04:09;;;;;;;18.80;9.00;;;;;0.70;102169.00;;;;4903613;29;20301;-68
2022/03/07 08:06:56;;;;;;;17.40;9.53;;;;;0.80;102169.00;;;;4901541;29;20232;-67
2022/03/07 08:09:42;;;;;;;17.63;8.63;;;;;1.00;102169.00;;;;4907413;29;20243;-70
2022/03/07 08:12:30;;;;;;;16.70;10.23;;;;;1.20;102184.00;;;;4909198;29;20245;-69
2022/03/07 08:15:16;;;;;;;16.33;9.77;;;;;1.30;102175.00;;;;4903277;29;20258;-67
2022/03/07 08:18:02;;;;;;;17.43;9.43;;;;;1.40;102186.00;;;;4898239;29;20357;-68
2022/03/07 08:20:49;;;;;;;18.00;9.10;;;;;1.50;102186.00;;;;4909527;29;20228;-68
2022/03/07 08:23:36;;;;;;;14.30;9.17;;;;;1.50;102185.00;;;;4907400;29;20237;-67
2022/03/07 08:26:25;;;;;;;13.83;8.57;;;;;1.70;102191.00;;;;4909449;29;20985;-68
2022/03/07 08:29:13;;;;;;;18.70;9.17;;;;;1.70;102188.00;;;;4907228;29;20959;-71
2022/03/07 08:31:59;;;;;;;16.27;8.97;;;;;2.00;102196.00;;;;4909389;29;20233;-68
2022/03/07 08:34:45;;;;;;;16.07;9.23;;;;;2.10;102191.00;;;;4908496;29;21043;-69
2022/03/07 08:37:32;;;;;;;17.80;9.80;;;;;2.20;102196.00;;;;4908566;29;20381;-68
2022/03/07 08:40:20;;;;;;;21.73;11.80;;;;;2.30;102199.00;;;;4910889;29;20264;-67
2022/03/07 08:43:06;;;;;;;17.97;8.97;;;;;2.40;102205.00;;;;4905566;29;20242;-69
2022/03/07 08:45:53;;;;;;;14.40;8.80;;;;;2.50;102209.00;;;;4903964;29;20237;-69
2022/03/07 08:48:42;;;;;;;15.23;8.97;;;;;2.50;102202.00;;;;4913034;29;20240;-69
2022/03/07 08:51:28;;;;;;;17.17;8.67;;;;;2.50;102209.00;;;;4916705;29;20236;-69
2022/03/07 08:54:17;;;;;;;15.53;8.73;;;;;2.80;102198.00;;;;4911680;29;20606;-66
2022/03/07 08:57:04;;;;;;;13.77;7.83;;;;;2.70;102208.00;;;;4910488;29;20350;-69
2022/03/07 08:59:50;;;;;;;16.90;8.47;;;;;3.00;102202.00;;;;4910636;29;20244;-69
2022/03/07 09:02:38;;;;;;;13.70;8.07;;;;;3.00;102198.00;;;;4911105;29;20241;-69
2022/03/07 09:05:25;;;;;;;14.20;7.73;;;;;3.10;102194.00;;;;4913640;29;20307;-69
2022/03/07 09:08:11;;;;;;;12.70;7.77;;;;;3.30;102176.00;;;;4913257;29;20233;-68
2022/03/07 09:10:58;;;;;;;17.17;8.50;;;;;3.50;102199.00;;;;4909688;29;20601;-71
2022/03/07 09:13:44;;;;;;;16.60;8.23;;;;;3.40;102190.00;;;;4896140;29;20749;-69
2022/03/07 09:16:30;;;;;;;16.17;9.27;;;;;3.70;102190.00;;;;4902725;29;20257;-69
2022/03/07 09:19:18;;;;;;;20.07;10.00;;;;;3.70;102185.00;;;;4910986;29;20293;-70
2022/03/07 09:22:05;;;;;;;13.00;6.83;;;;;4.00;102183.00;;;;4905000;29;20708;-68
2022/03/07 09:24:51;;;;;;;12.57;7.07;;;;;4.00;102182.00;;;;4913208;29;20704;-69
2022/03/07 09:27:38;;;;;;;16.33;8.63;;;;;4.10;102175.00;;;;4909319;29;20696;-71
2022/03/07 09:30:25;;;;;;;14.50;7.67;;;;;4.50;102184.00;;;;4912440;29;20248;-69
2022/03/07 09:33:11;;;;;;;10.97;5.73;;;;;4.70;102177.00;;;;4910139;29;20828;-69
2022/03/07 09:35:58;;;;;;;9.17;5.50;;;;;4.80;102169.00;;;;4903839;29;20236;-69
2022/03/07 09:38:45;;;;;;;8.40;5.33;;;;;4.80;102188.00;;;;4910475;29;20233;-69
2022/03/07 09:41:31;;;;;;;7.90;4.97;;;;;4.90;102191.00;;;;4909987;29;20701;-69
2022/03/07 09:44:17;;;;;;;6.83;4.63;;;;;5.00;102188.00;;;;4900219;29;20237;-69
2022/03/07 09:47:05;;;;;;;6.40;4.70;;;;;5.10;102183.00;;;;4898846;29;20233;-68
2022/03/07 09:49:52;;;;;;;7.17;4.20;;;;;5.40;102181.00;;;;4900016;29;20297;-71
2022/03/07 09:52:42;;;;;;;6.23;4.17;;;;;5.60;102176.00;;;;4900780;29;20261;-71
2022/03/07 09:55:30;;;;;;;6.17;4.53;;;;;5.60;102180.00;;;;4905473;29;20240;-69
2022/03/07 09:58:17;;;;;;;11.17;5.00;;;;;5.80;102173.00;;;;4898253;29;20331;-69
2022/03/07 10:01:08;;;;;;;8.00;4.90;;;;;5.90;102176.00;;;;4899002;29;20225;-71
2022/03/07 10:04:05;;;;;;;6.47;4.37;;;;;5.80;102158.00;;;;4904956;29;20237;-74
2022/03/07 10:06:52;;;;;;;9.60;5.10;;;;;5.70;102162.00;;;;4904113;29;20237;-71
2022/03/07 10:09:39;;;;;;;7.27;5.00;;;;;6.00;102163.00;;;;4902069;29;20265;-69
2022/03/07 10:12:28;;;;;;;7.40;4.70;;;;;6.10;102169.00;;;;4903635;29;20238;-74
2022/03/07 10:15:17;;;;;;;6.10;4.57;;;;;6.20;102175.00;;;;4896963;29;20283;-71
2022/03/07 10:18:04;;;;;;;7.07;4.83;;;;;6.30;102162.00;;;;4902552;29;20237;-72
2022/03/07 10:20:52;;;;;;;10.67;4.90;;;;;6.40;102166.00;;;;4899239;29;21359;-70
2022/03/07 10:23:39;;;;;;;7.70;4.60;;;;;6.50;102162.00;;;;4904120;29;20612;-70
2022/03/07 10:26:35;;;;;;;7.10;4.47;;;;;6.60;102158.00;;;;4893986;29;20293;-70
2022/03/07 10:29:21;;;;;;;7.60;4.50;;;;;6.70;102154.00;;;;4898032;29;20327;-72
2022/03/07 10:32:16;;;;;;;7.40;4.77;;;;;6.90;102142.00;;;;4903597;29;20720;-70
2022/03/07 10:35:03;;;;;;;5.90;4.23;;;;;7.10;102144.00;;;;4897083;29;20248;-72
2022/03/07 10:37:49;;;;;;;5.27;4.03;;;;;7.10;102148.00;;;;4895603;29;20241;-72
2022/03/07 10:40:39;;;;;;;13.13;4.70;;;;;7.10;102074.00;;;;4901387;29;20237;-74
2022/03/07 10:43:28;;;;;;;7.13;4.03;;;;;7.20;102142.00;;;;4898687;29;20645;-69
2022/03/07 10:46:25;;;;;;;7.33;4.83;;;;;7.40;102145.00;;;;4908078;29;20236;-70
2022/03/07 10:49:13;;;;;;;7.60;4.30;;;;;7.30;102134.00;;;;4902433;29;20297;-69
2022/03/07 10:52:01;;;;;;;7.43;4.33;;;;;7.20;102128.00;;;;4900724;29;20373;-67
2022/03/07 10:54:49;;;;;;;6.10;4.20;;;;;7.40;102111.00;;;;4909321;29;20232;-69
2022/03/07 10:57:37;;;;;;;5.73;4.03;;;;;7.50;102126.00;;;;4908703;29;20810;-69
2022/03/07 11:00:24;;;;;;;8.13;4.17;;;;;7.50;102125.00;;;;4901377;29;20350;-70
2022/03/07 11:03:15;;;;;;;6.43;3.73;;;;;7.40;102127.00;;;;4899592;29;20234;-71
2022/03/07 11:06:02;;;;;;;10.10;4.40;;;;;7.60;102125.00;;;;4900848;29;20229;-69
2022/03/07 11:08:49;;;;;;;5.93;4.23;;;;;7.50;102111.00;;;;4908802;29;20250;-69
2022/03/07 11:11:35;;;;;;;8.00;3.83;;;;;7.60;102111.00;;;;4903988;29;20243;-68
2022/03/07 11:14:22;;;;;;;7.07;4.07;;;;;7.70;102107.00;;;;4903555;29;20226;-69
2022/03/07 11:17:14;;;;;;;8.27;4.17;;;;;7.90;102112.00;;;;4897288;29;20237;-69
2022/03/07 11:20:01;;;;;;;5.40;3.90;;;;;8.00;102127.00;;;;4898314;29;20311;-67
2022/03/07 11:22:47;;;;;;;6.07;4.27;;;;;7.80;102101.00;;;;4895981;29;20238;-68
2022/03/07 11:25:34;;;;;;;5.83;3.70;;;;;8.00;102111.00;;;;4896695;29;20238;-69
2022/03/07 11:28:22;;;;;;;5.33;4.00;;;;;8.10;102106.00;;;;4899983;29;20236;-71
2022/03/07 11:31:19;;;;;;;7.30;4.30;;;;;8.20;102106.00;;;;4897792;29;21461;-73
2022/03/07 11:34:09;;;;;;;6.40;4.03;;;;;8.50;102099.00;;;;4909176;29;20369;-71
2022/03/07 11:36:55;;;;;;;7.37;4.40;;;;;8.60;102087.00;;;;4907333;29;20255;-69
2022/03/07 11:39:45;;;;;;;6.00;3.90;;;;;8.50;102095.00;;;;4906967;29;20354;-68
2022/03/07 11:42:37;;;;;;;6.73;4.07;;;;;8.40;102084.00;;;;4907832;29;20241;-68
2022/03/07 11:45:23;;;;;;;6.07;3.80;;;;;8.60;102072.00;;;;4903355;29;20287;-66
2022/03/07 11:48:13;;;;;;;5.73;3.97;;;;;8.60;102068.00;;;;4901607;29;20229;-69
2022/03/07 11:51:01;;;;;;;6.23;3.67;;;;;8.80;102062.00;;;;4909947;29;20234;-70
2022/03/07 11:53:48;;;;;;;5.23;3.90;;;;;8.70;102050.00;;;;4907952;29;20231;-68
2022/03/07 11:56:37;;;;;;;4.97;3.70;;;;;8.80;102054.00;;;;4907658;29;20234;-69
2022/03/07 11:59:30;;;;;;;7.57;4.13;;;;;9.00;102062.00;;;;4902498;29;20248;-68
2022/03/07 12:02:16;;;;;;;7.00;4.40;;;;;9.00;102066.00;;;;4908221;29;20705;-68
2022/03/07 12:05:03;;;;;;;5.73;4.23;;;;;9.00;102063.00;;;;4902417;29;20235;-70
2022/03/07 12:07:52;;;;;;;6.40;4.10;;;;;9.20;102061.00;;;;4915476;29;20318;-69
2022/03/07 12:10:40;;;;;;;6.27;3.80;;;;;9.10;102065.00;;;;4912840;29;20250;-73
2022/03/07 12:13:27;;;;;;;5.07;3.93;;;;;9.00;102057.00;;;;4907329;29;20927;-68
2022/03/07 12:16:25;;;;;;;6.47;4.27;;;;;9.10;102053.00;;;;4900257;29;20784;-70
2022/03/07 12:19:18;;;;;;;5.23;3.90;;;;;9.20;102042.00;;;;4898673;29;20651;-72
2022/03/07 12:22:11;;;;;;;5.73;4.20;;;;;9.20;102045.00;;;;4903760;29;20243;-72
2022/03/07 12:24:59;;;;;;;5.17;3.80;;;;;9.30;102044.00;;;;4904625;29;20293;-72
2022/03/07 12:27:56;;;;;;;5.70;4.10;;;;;9.60;102040.00;;;;4903436;29;20239;-71
2022/03/07 12:30:43;;;;;;;4.57;3.60;;;;;9.80;102028.00;;;;4904486;29;20243;-69
2022/03/07 12:33:30;;;;;;;5.90;3.90;;;;;9.60;102020.00;;;;4906819;29;20255;-71
2022/03/07 12:36:36;;;;;;;5.50;3.77;;;;;9.60;102035.00;;;;4906118;29;20245;-71
2022/03/07 12:39:22;;;;;;;7.00;4.30;;;;;9.40;102030.00;;;;4904141;29;20240;-69
2022/03/07 12:42:10;;;;;;;6.13;4.00;;;;;9.50;102034.00;;;;4906456;29;20332;-69
2022/03/07 12:44:59;;;;;;;7.37;3.93;;;;;9.50;102020.00;;;;4898112;29;20233;-72
2022/03/07 12:47:46;;;;;;;5.73;3.67;;;;;9.60;102025.00;;;;4908370;29;20654;-68
2022/03/07 12:50:34;;;;;;;7.17;3.80;;;;;9.70;102022.00;;;;4900558;29;20384;-70
2022/03/07 12:53:21;;;;;;;6.63;4.27;;;;;9.90;102032.00;;;;4899902;29;20237;-68
2022/03/07 12:56:07;;;;;;;5.07;4.10;;;;;9.80;102018.00;;;;4900566;29;20302;-70
2022/03/07 12:58:56;;;;;;;5.63;4.20;;;;;9.90;102007.00;;;;4905431;29;20246;-68
2022/03/07 13:01:50;;;;;;;5.03;3.73;;;;;10.10;102014.00;;;;4913720;29;20248;-67
2022/03/07 13:04:36;;;;;;;5.73;4.00;;;;;10.00;102014.00;;;;4913919;29;20236;-68
2022/03/07 13:07:25;;;;;;;5.93;4.27;;;;;10.10;102015.00;;;;4914135;29;20248;-69
2022/03/07 13:10:13;;;;;;;7.10;4.33;;;;;10.00;102011.00;;;;4902006;29;20237;-68
2022/03/07 13:13:02;;;;;;;6.27;4.07;;;;;10.10;101999.00;;;;4911858;29;20323;-69
2022/03/07 13:15:50;;;;;;;6.43;3.87;;;;;10.20;102001.00;;;;4902489;29;20313;-71
2022/03/07 13:18:37;;;;;;;6.00;4.03;;;;;10.40;101994.00;;;;4903535;29;20242;-71
2022/03/07 13:21:24;;;;;;;8.37;4.37;;;;;10.50;101990.00;;;;4906067;29;20232;-68
2022/03/07 13:24:15;;;;;;;6.30;4.23;;;;;10.40;101989.00;;;;4900651;29;20233;-68
2022/03/07 13:27:04;;;;;;;6.43;4.20;;;;;10.40;101984.00;;;;4898221;29;20229;-69
2022/03/07 13:30:04;;;;;;;9.97;5.07;;;;;10.40;101988.00;;;;4907675;29;20597;-70
2022/03/07 13:33:03;;;;;;;5.40;3.93;;;;;10.40;101982.00;;;;4910003;29;20250;-69
2022/03/07 13:36:10;;;;;;;7.27;4.20;;;;;10.30;101991.00;;;;4903258;29;20735;-68
2022/03/07 13:38:56;;;;;;;6.53;4.20;;;;;10.60;101973.00;;;;4909152;29;20237;-69
2022/03/07 13:41:47;;;;;;;7.17;4.17;;;;;10.70;101984.00;;;;4900175;29;20882;-69
2022/03/07 13:44:36;;;;;;;11.40;6.47;;;;;10.60;101975.00;;;;4907989;29;20284;-67